Time;durP1;ratioP1;P1;durP2;ratioP2;P2;SDS_P1;SDS_P2;PMS_P1;PMS_P2;Temp;Humidity;BMP_temperature;BMP_pressure;BME280_temperature;BME280_humidity;BME280_pressure;Samples;Min_cycle;Max_cycle;Signal;HPM_P1;HPM_P2
2022/02/14 05:00:48;;;;;;;2.90;2.70;;;6.90;99.90;;;;;;5743509;23;20243;-68
2022/02/14 05:03:14;;;;;;;4.15;2.95;;;6.90;99.90;;;;;;4951430;28;20701;-68
2022/02/14 05:05:41;;;;;;;8.05;3.47;;;6.90;99.90;;;;;;4966243;28;20258;-68
2022/02/14 05:08:07;;;;;;;2.50;2.40;;;6.90;99.90;;;;;;4969739;28;20231;-68
2022/02/14 05:10:34;;;;;;;3.97;3.70;;;6.90;99.90;;;;;;4959464;28;20274;-67
2022/02/14 05:13:01;;;;;;;3.25;2.95;;;6.90;99.90;;;;;;4951862;28;20307;-67
2022/02/14 05:15:28;;;;;;;3.22;3.03;;;6.90;99.90;;;;;;4938679;29;20201;-68
2022/02/14 05:17:56;;;;;;;2.97;2.88;;;6.90;99.90;;;;;;4952694;28;20213;-68
2022/02/14 05:20:23;;;;;;;2.33;2.22;;;7.00;99.90;;;;;;4948856;29;20676;-68
2022/02/14 05:22:49;;;;;;;3.13;2.90;;;7.10;99.90;;;;;;4952591;28;20268;-68
2022/02/14 05:25:16;;;;;;;6.53;3.00;;;7.10;99.90;;;;;;4938219;28;20257;-68
2022/02/14 05:27:42;;;;;;;3.22;3.03;;;7.20;99.90;;;;;;4933640;29;20276;-66
2022/02/14 05:30:10;;;;;;;4.95;2.80;;;7.20;99.90;;;;;;4949828;28;20210;-67
2022/02/14 05:32:37;;;;;;;6.57;3.67;;;7.30;99.90;;;;;;4946081;28;20328;-69
2022/02/14 05:35:06;;;;;;;2.78;2.67;;;7.30;99.90;;;;;;4950313;29;20213;-69
2022/02/14 05:37:32;;;;;;;3.95;3.60;;;7.30;99.90;;;;;;4951484;28;20283;-69
2022/02/14 05:39:59;;;;;;;2.88;2.67;;;7.30;99.90;;;;;;4938862;28;20205;-68
2022/02/14 05:42:26;;;;;;;3.25;3.05;;;7.30;99.90;;;;;;4934047;29;20257;-68
2022/02/14 05:44:52;;;;;;;2.95;2.75;;;7.30;99.90;;;;;;4933634;29;20306;-68
2022/02/14 05:47:19;;;;;;;3.10;2.90;;;7.30;99.90;;;;;;4946690;29;20670;-68
2022/02/14 05:49:46;;;;;;;2.65;2.45;;;7.40;99.90;;;;;;4952201;28;20221;-69
2022/02/14 05:52:14;;;;;;;2.88;2.67;;;7.40;99.90;;;;;;4950123;28;20639;-68
2022/02/14 05:54:41;;;;;;;2.95;2.55;;;7.40;99.90;;;;;;4944658;28;20233;-68
2022/02/14 05:57:08;;;;;;;2.95;2.75;;;7.50;99.90;;;;;;4944730;29;20217;-69
2022/02/14 05:59:34;;;;;;;3.75;2.75;;;7.50;99.90;;;;;;4941688;28;20740;-68
2022/02/14 06:02:02;;;;;;;3.00;2.80;;;7.50;99.90;;;;;;4952694;28;20240;-69
2022/02/14 06:04:28;;;;;;;3.30;3.10;;;7.60;99.90;;;;;;4944847;28;20261;-69
2022/02/14 06:06:55;;;;;;;3.60;3.40;;;7.60;99.90;;;;;;4940682;29;20222;-69
2022/02/14 06:09:26;;;;;;;2.60;2.60;;;7.60;99.90;;;;;;4952824;29;20677;-68
2022/02/14 06:11:53;;;;;;;4.15;2.58;;;7.50;99.90;;;;;;4954534;28;20268;-68
2022/02/14 06:14:20;;;;;;;3.78;3.47;;;7.60;99.90;;;;;;4943412;28;20265;-68
2022/02/14 06:16:46;;;;;;;4.70;3.13;;;7.60;99.90;;;;;;4954725;28;20664;-68
2022/02/14 06:19:13;;;;;;;2.50;2.40;;;7.60;99.90;;;;;;4939982;28;20273;-69
2022/02/14 06:21:40;;;;;;;3.70;2.65;;;7.60;99.90;;;;;;4940436;29;20229;-68
2022/02/14 06:24:06;;;;;;;4.32;3.15;;;7.60;99.90;;;;;;4952567;28;20206;-69
2022/02/14 06:26:35;;;;;;;3.65;3.13;;;7.60;99.90;;;;;;4955032;28;20213;-71
2022/02/14 06:29:02;;;;;;;2.63;2.50;;;7.70;99.90;;;;;;4942591;28;20296;-67
2022/02/14 06:31:29;;;;;;;3.25;2.92;;;7.70;99.90;;;;;;4954581;28;20222;-68
2022/02/14 06:33:56;;;;;;;2.75;2.65;;;7.70;99.90;;;;;;4949117;28;20296;-68
2022/02/14 06:36:26;;;;;;;2.40;2.30;;;7.70;99.90;;;;;;4935971;28;20205;-68
2022/02/14 06:38:53;;;;;;;3.13;2.92;;;7.70;99.90;;;;;;4939591;29;20281;-68
2022/02/14 06:41:20;;;;;;;3.08;2.90;;;7.70;99.90;;;;;;4951105;28;20292;-69
2022/02/14 06:43:48;;;;;;;6.47;2.55;;;7.70;99.90;;;;;;4937732;29;20307;-68
2022/02/14 06:46:15;;;;;;;3.53;3.17;;;7.70;99.90;;;;;;4954643;28;20248;-68
2022/02/14 06:48:42;;;;;;;3.03;2.83;;;7.70;99.90;;;;;;4954551;28;20209;-69
2022/02/14 06:51:09;;;;;;;3.00;2.63;;;7.70;99.90;;;;;;4953319;28;20229;-68
2022/02/14 06:53:36;;;;;;;2.65;2.45;;;7.70;99.90;;;;;;4946738;29;20312;-69
2022/02/14 06:56:05;;;;;;;2.80;2.60;;;7.60;99.90;;;;;;4946457;28;20721;-68
2022/02/14 06:58:32;;;;;;;4.35;3.15;;;7.70;99.90;;;;;;4942348;29;20265;-68
2022/02/14 07:01:00;;;;;;;3.70;2.42;;;7.60;99.90;;;;;;4937582;29;20300;-69
2022/02/14 07:03:27;;;;;;;2.92;2.83;;;7.80;99.90;;;;;;4946984;28;20209;-68
2022/02/14 07:05:53;;;;;;;2.40;2.35;;;7.90;99.90;;;;;;4953117;28;20201;-69
2022/02/14 07:08:20;;;;;;;2.08;2.03;;;7.80;99.90;;;;;;4954283;28;20217;-68
2022/02/14 07:10:47;;;;;;;3.20;2.92;;;7.80;99.90;;;;;;4949455;29;20304;-69
2022/02/14 07:13:13;;;;;;;2.70;2.60;;;7.80;99.90;;;;;;4952750;28;20229;-69
2022/02/14 07:15:40;;;;;;;3.00;2.80;;;7.80;99.90;;;;;;4943881;29;20646;-68
2022/02/14 07:18:13;;;;;;;3.00;2.60;;;7.80;99.90;;;;;;4943142;29;20205;-70
2022/02/14 07:20:41;;;;;;;2.80;2.58;;;7.80;99.90;;;;;;4943086;29;20233;-69
2022/02/14 07:23:08;;;;;;;2.40;2.30;;;7.80;99.90;;;;;;4953907;29;20619;-69
2022/02/14 07:25:35;;;;;;;4.57;2.80;;;7.80;99.90;;;;;;4951129;29;20725;-69
2022/02/14 07:28:02;;;;;;;3.03;2.80;;;7.80;99.90;;;;;;4935259;29;20205;-68
2022/02/14 07:30:29;;;;;;;2.90;2.70;;;7.80;99.90;;;;;;4937318;28;20210;-68
2022/02/14 07:32:55;;;;;;;2.58;2.55;;;7.90;99.90;;;;;;4954129;28;20241;-68
2022/02/14 07:35:23;;;;;;;3.13;3.03;;;7.80;99.90;;;;;;4940088;29;20218;-68
2022/02/14 07:37:50;;;;;;;3.53;3.05;;;7.80;99.90;;;;;;4951809;28;20291;-69
2022/02/14 07:40:17;;;;;;;3.28;2.88;;;7.80;99.90;;;;;;4949879;28;20197;-67
2022/02/14 07:42:45;;;;;;;2.50;2.40;;;7.80;99.90;;;;;;4941549;29;20210;-68
2022/02/14 07:45:12;;;;;;;2.25;2.25;;;7.90;99.90;;;;;;4946658;28;20208;-67
2022/02/14 07:47:39;;;;;;;2.88;2.72;;;7.90;99.90;;;;;;4954200;28;20696;-67
2022/02/14 07:50:11;;;;;;;2.92;2.45;;;7.90;99.90;;;;;;4941849;28;20197;-68
2022/02/14 07:52:39;;;;;;;2.83;2.72;;;8.00;99.90;;;;;;4953865;29;20213;-67
2022/02/14 07:55:07;;;;;;;2.58;2.40;;;8.00;99.90;;;;;;4948256;28;20206;-68
2022/02/14 07:57:34;;;;;;;2.80;2.60;;;8.10;99.90;;;;;;4937506;29;20218;-67
2022/02/14 08:00:02;;;;;;;2.60;2.50;;;8.10;99.90;;;;;;4938237;29;20206;-68
2022/02/14 08:02:29;;;;;;;3.55;2.60;;;8.10;99.90;;;;;;4948973;29;20238;-69
2022/02/14 08:04:56;;;;;;;4.20;2.80;;;8.20;99.90;;;;;;4952252;29;20268;-69
2022/02/14 08:07:23;;;;;;;2.22;2.00;;;8.20;99.90;;;;;;4961271;28;20206;-69
2022/02/14 08:09:51;;;;;;;2.75;2.60;;;8.20;99.90;;;;;;4950943;28;20209;-69
2022/02/14 08:12:18;;;;;;;2.80;2.60;;;8.30;99.90;;;;;;4953459;28;20265;-68
2022/02/14 08:14:46;;;;;;;2.67;2.55;;;8.30;99.90;;;;;;4953324;28;20237;-68
2022/02/14 08:17:13;;;;;;;2.53;2.33;;;8.40;99.90;;;;;;4935599;28;20236;-69
2022/02/14 08:19:40;;;;;;;2.30;2.20;;;8.40;99.90;;;;;;4934479;29;20265;-68
2022/02/14 08:22:07;;;;;;;2.63;2.50;;;8.50;99.90;;;;;;4949553;29;20694;-68
2022/02/14 08:24:33;;;;;;;2.45;2.35;;;8.50;99.90;;;;;;4944944;28;20246;-68
2022/02/14 08:27:03;;;;;;;2.92;2.72;;;8.60;99.90;;;;;;4935536;29;20297;-68
2022/02/14 08:29:30;;;;;;;4.10;3.10;;;8.70;99.90;;;;;;4934418;29;20206;-69
2022/02/14 08:31:57;;;;;;;2.55;2.35;;;8.70;99.90;;;;;;4938423;29;20664;-66
2022/02/14 08:34:23;;;;;;;3.70;2.70;;;8.70;99.90;;;;;;4935969;28;20293;-68
2022/02/14 08:36:50;;;;;;;2.60;2.03;;;8.70;99.90;;;;;;4940223;29;20729;-69
2022/02/14 08:39:16;;;;;;;2.38;2.30;;;8.70;99.90;;;;;;4951759;28;20214;-68
2022/02/14 08:41:44;;;;;;;2.72;2.55;;;8.70;99.90;;;;;;4946016;28;20715;-69
2022/02/14 08:44:12;;;;;;;3.40;3.10;;;8.70;99.90;;;;;;4948289;29;20641;-68
2022/02/14 08:46:40;;;;;;;2.80;2.65;;;8.70;99.90;;;;;;4942029;28;20216;-68
2022/02/14 08:49:06;;;;;;;2.70;2.50;;;8.70;99.90;;;;;;4951925;28;20236;-68
2022/02/14 08:51:33;;;;;;;2.00;1.90;;;8.80;99.90;;;;;;4946836;28;20785;-69
2022/02/14 08:54:00;;;;;;;2.67;2.47;;;8.90;99.90;;;;;;4934206;29;20237;-69
2022/02/14 08:56:26;;;;;;;4.05;3.75;;;8.90;99.90;;;;;;4936219;29;20268;-70
2022/02/14 08:58:53;;;;;;;2.53;2.33;;;9.00;99.90;;;;;;4940855;28;20210;-69
2022/02/14 09:01:21;;;;;;;3.15;2.60;;;9.00;99.90;;;;;;4941191;29;20579;-69
2022/02/14 09:03:48;;;;;;;2.45;2.35;;;9.10;99.90;;;;;;4939601;28;20216;-69
2022/02/14 09:06:14;;;;;;;3.95;2.20;;;9.20;99.90;;;;;;4937745;29;20205;-69
2022/02/14 09:08:41;;;;;;;2.85;2.75;;;9.40;99.90;;;;;;4937099;28;20265;-68
2022/02/14 09:11:08;;;;;;;3.42;2.50;;;9.40;99.90;;;;;;4934530;29;20634;-70
2022/02/14 09:13:36;;;;;;;3.15;2.92;;;9.50;99.90;;;;;;4952420;28;20229;-69
2022/02/14 09:16:04;;;;;;;2.95;2.75;;;9.50;99.90;;;;;;4952558;28;20213;-69
2022/02/14 09:18:32;;;;;;;3.20;2.70;;;9.50;99.90;;;;;;4948061;29;20213;-69
2022/02/14 09:20:59;;;;;;;2.67;2.50;;;9.60;99.90;;;;;;4936859;29;20229;-69
2022/02/14 09:23:26;;;;;;;3.10;2.90;;;9.70;99.90;;;;;;4936678;29;20200;-68
2022/02/14 09:25:53;;;;;;;4.95;2.67;;;9.70;99.90;;;;;;4947957;28;20343;-70
2022/02/14 09:28:20;;;;;;;2.72;2.42;;;9.80;99.90;;;;;;4940289;29;20202;-68
2022/02/14 09:30:46;;;;;;;2.63;2.42;;;9.90;99.90;;;;;;4934945;29;20225;-70
2022/02/14 09:33:13;;;;;;;2.03;2.03;;;10.00;99.90;;;;;;4951427;29;20283;-70
2022/02/14 09:35:41;;;;;;;2.30;2.20;;;10.10;99.90;;;;;;4948678;28;20209;-68
2022/02/14 09:38:10;;;;;;;3.28;2.33;;;10.20;99.90;;;;;;4945774;28;20674;-69
2022/02/14 09:40:37;;;;;;;2.78;2.47;;;10.40;99.90;;;;;;4943877;28;20321;-69
2022/02/14 09:43:05;;;;;;;2.40;2.20;;;10.50;99.90;;;;;;4950470;28;20619;-67
2022/02/14 09:45:32;;;;;;;1.92;1.75;;;10.50;99.90;;;;;;4953654;29;20272;-69
2022/02/14 09:48:00;;;;;;;2.20;2.10;;;10.60;99.90;;;;;;4956268;28;20612;-68
2022/02/14 09:50:28;;;;;;;2.53;2.42;;;10.70;99.90;;;;;;4953804;28;20216;-69
2022/02/14 09:52:57;;;;;;;3.10;2.83;;;10.80;99.90;;;;;;4947692;28;20205;-69
2022/02/14 09:55:24;;;;;;;2.50;2.40;;;10.80;99.90;;;;;;4936962;29;20285;-69
2022/02/14 09:57:51;;;;;;;3.30;2.97;;;10.90;99.90;;;;;;4937642;29;20683;-68
2022/02/14 10:00:19;;;;;;;1.95;1.85;;;11.00;99.90;;;;;;4943665;28;20292;-69
2022/02/14 10:02:46;;;;;;;2.10;2.00;;;11.10;99.90;;;;;;4946696;29;20351;-69
2022/02/14 10:05:18;;;;;;;4.07;2.00;;;11.20;99.90;;;;;;4941088;28;20195;-68
2022/02/14 10:07:46;;;;;;;1.95;1.85;;;11.20;99.90;;;;;;4947379;29;20572;-67
2022/02/14 10:10:17;;;;;;;4.13;2.55;;;11.30;99.90;;;;;;4946412;28;20622;-68
2022/02/14 10:12:46;;;;;;;1.95;1.85;;;11.30;99.90;;;;;;4938148;29;20229;-68
2022/02/14 10:15:14;;;;;;;2.15;2.05;;;11.40;99.90;;;;;;4949080;29;20698;-68
2022/02/14 10:17:42;;;;;;;2.70;1.95;;;11.40;99.90;;;;;;4940829;28;20206;-68
2022/02/14 10:20:11;;;;;;;4.00;1.75;;;11.50;99.90;;;;;;4944126;29;20664;-68
2022/02/14 10:22:59;;;;;;;1.83;1.73;;;11.50;99.90;;;;;;4945818;28;20210;-67
2022/02/14 10:25:34;;;;;;;6.70;2.20;;;11.60;99.90;;;;;;4940591;29;20205;-68
2022/02/14 10:28:18;;;;;;;2.63;2.53;;;11.60;99.90;;;;;;4940978;29;20281;-68
2022/02/14 10:30:56;;;;;;;1.55;1.45;;;11.60;99.90;;;;;;4945720;29;20324;-68
2022/02/14 10:33:23;;;;;;;2.00;1.90;;;11.60;99.90;;;;;;4953307;28;20209;-68
2022/02/14 10:35:50;;;;;;;1.73;1.63;;;11.70;99.90;;;;;;4942160;28;20248;-68
2022/02/14 10:38:22;;;;;;;1.73;1.73;;;11.70;99.90;;;;;;4944874;28;20206;-71
2022/02/14 10:40:50;;;;;;;2.42;2.22;;;11.80;99.90;;;;;;4935677;29;20233;-68
2022/02/14 10:43:26;;;;;;;1.90;1.80;;;11.90;99.90;;;;;;4936068;29;20261;-68
2022/02/14 10:45:53;;;;;;;1.80;1.70;;;12.00;99.90;;;;;;4935683;29;20528;-68
2022/02/14 10:48:33;;;;;;;2.00;1.90;;;12.00;99.90;;;;;;4936183;29;20213;-70
2022/02/14 10:51:00;;;;;;;1.60;1.50;;;12.10;99.90;;;;;;4936659;28;20906;-70
2022/02/14 10:53:26;;;;;;;2.10;2.00;;;12.10;99.90;;;;;;4935873;29;20528;-70
2022/02/14 10:55:57;;;;;;;2.43;1.73;;;12.10;99.90;;;;;;4935483;29;21034;-71
2022/02/14 10:58:28;;;;;;;1.53;1.43;;;12.20;99.90;;;;;;4935916;29;20513;-69
2022/02/14 11:00:57;;;;;;;1.60;1.60;;;12.20;99.90;;;;;;4935409;29;20580;-69
2022/02/14 11:03:23;;;;;;;1.45;1.45;;;12.30;99.90;;;;;;4935766;29;20466;-71
2022/02/14 11:05:52;;;;;;;2.00;1.90;;;12.30;99.90;;;;;;4934838;29;20206;-68
2022/02/14 11:08:21;;;;;;;1.97;1.87;;;12.40;99.90;;;;;;4935872;29;20476;-70
2022/02/14 11:10:50;;;;;;;1.50;1.50;;;12.40;99.90;;;;;;4935109;29;20488;-68
2022/02/14 11:13:24;;;;;;;1.63;1.50;;;12.50;99.90;;;;;;4936028;29;20469;-68
2022/02/14 11:15:54;;;;;;;1.50;1.50;;;12.50;99.90;;;;;;4935480;29;20494;-67
2022/02/14 11:18:25;;;;;;;1.93;1.83;;;12.60;99.90;;;;;;4936333;29;20469;-67
2022/02/14 11:20:52;;;;;;;3.23;1.60;;;12.60;99.90;;;;;;4934459;29;20544;-67
2022/02/14 11:23:20;;;;;;;1.67;1.63;;;12.60;99.90;;;;;;4935450;29;20516;-69
2022/02/14 11:25:55;;;;;;;1.57;1.57;;;12.70;99.90;;;;;;4939588;29;20860;-69
2022/02/14 11:28:29;;;;;;;2.67;1.50;;;12.80;99.90;;;;;;4935930;29;20469;-68
2022/02/14 11:31:08;;;;;;;1.93;1.93;;;12.80;99.90;;;;;;4954364;28;20488;-69
2022/02/14 11:33:35;;;;;;;2.13;2.03;;;12.80;99.90;;;;;;4954834;29;20474;-67
2022/02/14 11:36:05;;;;;;;2.17;2.07;;;12.90;99.90;;;;;;4953640;28;20528;-68
2022/02/14 11:38:44;;;;;;;2.67;1.70;;;12.90;99.90;;;;;;4937883;28;20472;-69
2022/02/14 11:41:33;;;;;;;2.17;2.00;;;13.00;99.90;;;;;;4952097;29;20488;-69
2022/02/14 11:44:21;;;;;;;1.70;1.70;;;13.00;99.90;;;;;;4935094;29;20457;-68
2022/02/14 11:47:07;;;;;;;1.43;1.43;;;13.00;99.90;;;;;;4937014;29;20472;-67
2022/02/14 11:49:36;;;;;;;1.83;1.37;;;13.00;99.90;;;;;;4942410;28;20468;-68
2022/02/14 11:52:05;;;;;;;1.50;1.50;;;13.00;99.90;;;;;;4933951;29;20560;-69
2022/02/14 11:54:35;;;;;;;1.53;1.43;;;13.00;99.90;;;;;;4934450;29;20490;-69
2022/02/14 11:57:26;;;;;;;3.50;1.73;;;13.00;99.90;;;;;;4935052;29;20465;-69
2022/02/14 12:00:24;;;;;;;1.70;1.70;;;13.00;99.90;;;;;;4934233;29;20469;-69
2022/02/14 12:03:00;;;;;;;1.43;1.43;;;13.10;99.90;;;;;;4936944;29;20464;-66
2022/02/14 12:05:49;;;;;;;1.70;1.60;;;13.10;99.90;;;;;;4934423;29;20461;-66
2022/02/14 12:08:18;;;;;;;1.80;1.70;;;13.10;99.90;;;;;;4944536;29;20497;-67
2022/02/14 12:10:47;;;;;;;2.37;2.13;;;13.00;99.90;;;;;;4934921;28;20573;-66
2022/02/14 12:13:22;;;;;;;4.20;2.10;;;13.00;99.90;;;;;;4934414;29;20465;-67
2022/02/14 12:21:27;;;;;;;1.97;1.87;;;13.00;99.90;;;;;;4953239;29;20627;-67
2022/02/14 12:23:56;;;;;;;1.60;1.60;;;12.90;99.90;;;;;;4948900;29;20473;-67
2022/02/14 12:26:26;;;;;;;1.50;1.50;;;12.90;99.90;;;;;;4943286;29;20552;-66
2022/02/14 12:31:42;;;;;;;1.87;1.87;;;12.80;99.90;;;;;;4951081;29;21123;-67
2022/02/14 12:34:09;;;;;;;1.53;1.53;;;12.90;99.90;;;;;;4949819;28;20486;-69
2022/02/14 12:36:35;;;;;;;2.30;2.00;;;12.90;99.90;;;;;;4933535;28;20501;-68
2022/02/14 12:39:04;;;;;;;2.03;2.03;;;12.90;99.90;;;;;;4933707;28;20450;-69
2022/02/14 12:41:30;;;;;;;1.80;1.80;;;12.90;99.90;;;;;;4933453;29;20481;-68
2022/02/14 12:43:58;;;;;;;1.93;1.83;;;12.90;99.90;;;;;;4933935;29;20466;-68
2022/02/14 12:46:25;;;;;;;1.50;1.50;;;12.80;99.90;;;;;;4933370;29;20513;-67
2022/02/14 12:48:57;;;;;;;1.57;1.47;;;12.80;99.90;;;;;;4949692;29;20464;-67
2022/02/14 12:51:26;;;;;;;2.50;1.60;;;12.70;99.90;;;;;;4951568;28;20492;-67
2022/02/14 12:53:54;;;;;;;2.73;1.87;;;12.70;99.90;;;;;;4952710;28;20893;-68
2022/02/14 12:56:23;;;;;;;1.67;1.40;;;12.60;99.90;;;;;;4952509;28;20493;-68
2022/02/14 12:58:52;;;;;;;1.77;1.73;;;12.60;99.90;;;;;;4952428;28;20464;-67
2022/02/14 13:01:20;;;;;;;2.03;2.00;;;12.60;99.90;;;;;;4946707;28;20492;-66
2022/02/14 13:03:56;;;;;;;2.37;2.23;;;12.60;99.90;;;;;;4947484;28;20476;-68
2022/02/14 13:06:36;;;;;;;1.90;1.80;;;12.60;99.90;;;;;;4934269;29;20926;-68
2022/02/14 13:09:03;;;;;;;2.00;1.90;;;12.60;99.90;;;;;;4934391;29;20974;-68
2022/02/14 13:11:40;;;;;;;2.10;2.00;;;12.60;99.90;;;;;;4935748;29;20539;-67
2022/02/14 13:14:06;;;;;;;1.73;1.73;;;12.60;99.90;;;;;;4943949;28;20472;-67
2022/02/14 13:16:33;;;;;;;1.60;1.60;;;12.60;99.90;;;;;;4949717;28;20527;-68
2022/02/14 13:19:12;;;;;;;1.40;1.40;;;12.70;99.90;;;;;;4934605;29;20955;-67
2022/02/14 13:21:44;;;;;;;1.20;1.20;;;12.80;99.90;;;;;;4939929;29;20560;-69
2022/02/14 13:24:19;;;;;;;1.80;1.80;;;12.80;99.90;;;;;;4936925;29;20461;-68
2022/02/14 13:26:46;;;;;;;1.70;1.70;;;12.90;99.90;;;;;;4938973;29;20472;-68
2022/02/14 13:29:13;;;;;;;1.80;1.70;;;12.90;99.90;;;;;;4940033;29;20473;-68
2022/02/14 13:31:39;;;;;;;1.97;1.87;;;12.90;99.90;;;;;;4937217;29;20533;-68
2022/02/14 13:34:09;;;;;;;2.07;1.87;;;13.00;99.90;;;;;;4935113;29;20883;-67
2022/02/14 13:36:49;;;;;;;4.20;1.80;;;13.10;99.90;;;;;;4940680;29;20501;-68
2022/02/14 13:39:27;;;;;;;1.73;1.73;;;13.10;99.90;;;;;;4937868;29;20501;-69
2022/02/14 13:41:54;;;;;;;1.77;1.67;;;13.20;99.90;;;;;;4940905;29;20588;-67
2022/02/14 13:44:20;;;;;;;1.67;1.67;;;13.40;99.90;;;;;;4935831;28;20458;-67
2022/02/14 13:46:47;;;;;;;1.40;1.20;;;13.40;99.90;;;;;;4945904;29;20531;-68
2022/02/14 13:49:34;;;;;;;1.80;1.70;;;13.30;99.90;;;;;;4939053;28;20481;-67
2022/02/14 13:52:01;;;;;;;1.80;1.80;;;13.30;99.90;;;;;;4942828;29;20500;-68
2022/02/14 13:54:28;;;;;;;1.37;1.37;;;13.30;99.90;;;;;;4944011;29;20500;-67
2022/02/14 13:56:54;;;;;;;1.60;1.60;;;13.20;99.90;;;;;;4950990;28;20469;-68
2022/02/14 13:59:23;;;;;;;1.70;1.40;;;13.20;99.90;;;;;;4936859;29;20460;-68
2022/02/14 14:01:51;;;;;;;1.57;1.57;;;13.20;99.90;;;;;;4943166;29;20511;-67
2022/02/14 14:04:26;;;;;;;1.50;1.40;;;13.20;99.90;;;;;;4944340;29;20644;-67
2022/02/14 14:07:05;;;;;;;1.40;1.40;;;13.10;99.90;;;;;;4950128;28;20933;-68
2022/02/14 14:09:40;;;;;;;1.73;1.73;;;13.10;99.90;;;;;;4949550;29;20461;-67
2022/02/14 14:12:09;;;;;;;2.10;2.00;;;13.10;99.90;;;;;;4951231;29;20480;-68
2022/02/14 14:14:37;;;;;;;2.17;1.97;;;13.10;99.90;;;;;;4950715;29;20465;-67
2022/02/14 14:17:04;;;;;;;1.70;1.60;;;13.10;99.90;;;;;;4940541;28;20947;-66
2022/02/14 14:19:31;;;;;;;2.93;2.03;;;13.10;99.90;;;;;;4941085;29;20532;-67
2022/02/14 14:21:59;;;;;;;2.67;1.80;;;13.10;99.90;;;;;;4941783;29;20924;-67
2022/02/14 14:24:26;;;;;;;2.10;2.00;;;13.10;99.90;;;;;;4942614;29;20503;-67
2022/02/14 14:26:54;;;;;;;5.33;1.90;;;13.10;99.90;;;;;;4946396;29;20981;-68
2022/02/14 14:29:21;;;;;;;1.67;1.67;;;13.00;99.90;;;;;;4946436;29;20469;-68
2022/02/14 14:31:50;;;;;;;1.60;1.60;;;12.90;99.90;;;;;;4946688;28;20493;-66
2022/02/14 14:34:17;;;;;;;1.73;1.70;;;12.80;99.90;;;;;;4939079;28;20465;-66
2022/02/14 14:36:44;;;;;;;2.33;1.93;;;12.70;99.90;;;;;;4939176;29;20993;-69
2022/02/14 14:39:12;;;;;;;2.00;1.90;;;12.70;99.90;;;;;;4948790;29;20477;-67
2022/02/14 14:41:39;;;;;;;2.37;2.00;;;12.70;99.90;;;;;;4940779;29;20493;-68
2022/02/14 14:44:06;;;;;;;1.80;1.70;;;12.70;99.90;;;;;;4939322;29;20843;-68
2022/02/14 14:46:33;;;;;;;2.10;1.90;;;12.60;99.90;;;;;;4942193;29;21276;-67
2022/02/14 14:49:00;;;;;;;1.67;1.67;;;12.60;99.90;;;;;;4942725;28;20814;-68
2022/02/14 14:51:26;;;;;;;1.80;1.70;;;12.60;99.90;;;;;;4944763;29;20492;-68
2022/02/14 14:53:53;;;;;;;3.00;1.90;;;12.60;99.90;;;;;;4945822;28;20533;-67
2022/02/14 14:56:21;;;;;;;2.13;2.03;;;12.60;99.90;;;;;;4943165;28;20516;-69
2022/02/14 14:58:48;;;;;;;2.33;2.23;;;12.50;99.90;;;;;;4946038;29;20464;-68
2022/02/14 15:01:14;;;;;;;3.80;2.10;;;12.50;99.90;;;;;;4941156;28;20588;-69
2022/02/14 15:03:42;;;;;;;2.40;2.20;;;12.40;99.90;;;;;;4944353;29;20523;-66
2022/02/14 15:06:11;;;;;;;1.87;1.87;;;12.40;99.90;;;;;;4940611;28;20519;-68
2022/02/14 15:08:39;;;;;;;1.93;1.93;;;12.40;99.90;;;;;;4942858;29;20580;-69
2022/02/14 15:11:06;;;;;;;1.83;1.80;;;12.40;99.90;;;;;;4954133;29;20839;-67
2022/02/14 15:13:34;;;;;;;1.83;1.67;;;12.40;99.90;;;;;;4950609;28;20466;-68
2022/02/14 15:16:00;;;;;;;1.87;1.73;;;12.30;99.90;;;;;;4940724;28;20491;-67
2022/02/14 15:18:27;;;;;;;1.90;1.80;;;12.30;99.90;;;;;;4950958;28;20543;-67
2022/02/14 15:20:54;;;;;;;2.20;2.10;;;12.30;99.90;;;;;;4952251;28;20488;-67
2022/02/14 15:23:20;;;;;;;2.37;2.17;;;12.20;99.90;;;;;;4942770;29;20460;-68
2022/02/14 15:25:47;;;;;;;2.03;1.83;;;12.20;99.90;;;;;;4942947;29;20613;-67
2022/02/14 15:28:14;;;;;;;6.40;2.53;;;12.20;99.90;;;;;;4944962;29;20465;-67
2022/02/14 15:30:42;;;;;;;2.70;1.70;;;12.10;99.90;;;;;;4948619;29;20489;-69
2022/02/14 15:33:08;;;;;;;2.15;2.05;;;12.00;99.90;;;;;;4953001;28;20480;-67
2022/02/14 15:35:35;;;;;;;3.20;1.90;;;11.90;99.90;;;;;;4939573;28;20230;-67
2022/02/14 15:38:02;;;;;;;2.03;2.03;;;11.80;99.90;;;;;;4952237;28;20197;-67
2022/02/14 15:40:29;;;;;;;2.60;2.50;;;11.60;99.90;;;;;;4954424;29;20205;-67
2022/02/14 15:42:56;;;;;;;2.90;2.80;;;11.50;99.90;;;;;;4953201;28;20213;-67
2022/02/14 15:45:23;;;;;;;2.17;2.05;;;11.30;99.90;;;;;;4956875;29;20280;-66
2022/02/14 15:48:02;;;;;;;3.30;3.00;;;11.30;99.90;;;;;;4957727;28;20213;-68
2022/02/14 15:50:30;;;;;;;2.65;2.55;;;11.20;99.90;;;;;;4959665;28;20228;-67
2022/02/14 15:52:57;;;;;;;2.85;2.75;;;11.10;99.90;;;;;;4960784;28;20217;-67
2022/02/14 15:55:24;;;;;;;2.83;2.65;;;11.00;99.90;;;;;;4944426;28;20238;-68
2022/02/14 15:57:51;;;;;;;3.50;3.20;;;11.00;99.90;;;;;;4955851;28;20293;-66
2022/02/14 16:00:18;;;;;;;3.47;2.75;;;10.90;99.90;;;;;;4954109;28;20207;-68
2022/02/14 16:02:45;;;;;;;3.20;3.10;;;10.90;99.90;;;;;;4947050;29;20201;-67
2022/02/14 16:05:13;;;;;;;3.65;3.47;;;10.70;99.90;;;;;;4943959;28;20202;-68
2022/02/14 16:07:40;;;;;;;3.20;3.00;;;10.60;99.90;;;;;;4944157;29;20268;-66
2022/02/14 16:10:07;;;;;;;3.58;3.38;;;10.40;99.90;;;;;;4947417;28;20619;-67
2022/02/14 16:12:34;;;;;;;3.28;3.00;;;10.30;99.90;;;;;;4937127;29;20321;-67
2022/02/14 16:15:01;;;;;;;3.20;3.03;;;10.20;99.90;;;;;;4944129;29;20569;-67
2022/02/14 16:17:28;;;;;;;3.90;3.60;;;10.20;99.90;;;;;;4941030;29;20526;-67
2022/02/14 16:19:55;;;;;;;3.92;3.72;;;10.10;99.90;;;;;;4947675;28;20244;-67
2022/02/14 16:22:23;;;;;;;3.60;3.40;;;10.10;99.90;;;;;;4946221;29;20316;-67
2022/02/14 16:24:50;;;;;;;3.50;3.40;;;10.10;99.90;;;;;;4951516;28;20626;-67
2022/02/14 16:27:17;;;;;;;4.40;4.10;;;10.00;99.90;;;;;;4950003;29;20237;-66
2022/02/14 16:29:44;;;;;;;4.25;4.05;;;10.00;99.90;;;;;;4955879;29;20237;-67
2022/02/14 16:32:13;;;;;;;5.22;4.82;;;10.00;99.90;;;;;;4958502;28;20218;-67
2022/02/14 16:34:39;;;;;;;5.47;4.97;;;9.90;99.90;;;;;;4951281;29;20206;-67
2022/02/14 16:37:06;;;;;;;5.57;5.18;;;9.90;99.90;;;;;;4940361;29;20356;-67
2022/02/14 16:39:34;;;;;;;5.13;4.68;;;9.80;99.90;;;;;;4949873;28;20280;-67
2022/02/14 16:42:01;;;;;;;4.28;3.85;;;9.80;99.90;;;;;;4948436;29;20272;-66
2022/02/14 16:44:28;;;;;;;5.68;5.18;;;9.70;99.90;;;;;;4950826;29;20209;-67
2022/02/14 16:46:54;;;;;;;4.40;4.20;;;9.60;99.90;;;;;;4941337;28;20310;-67
2022/02/14 16:49:51;;;;;;;5.05;4.75;;;9.60;99.90;;;;;;4949908;29;20279;-67
2022/02/14 16:52:08;;;;;;;4.40;4.10;;;9.50;99.90;;;;;;4947810;29;20280;-67
2022/02/14 16:54:36;;;;;;;5.53;5.15;;;9.40;99.90;;;;;;4945518;29;20213;-67
2022/02/14 16:57:03;;;;;;;5.40;4.95;;;9.40;99.90;;;;;;4941987;29;20226;-67
2022/02/14 16:59:29;;;;;;;5.43;4.90;;;9.30;99.90;;;;;;4948790;28;20233;-67
2022/02/14 17:01:56;;;;;;;6.10;5.60;;;9.30;99.90;;;;;;4942131;29;20301;-67
2022/02/14 17:04:23;;;;;;;5.53;4.95;;;9.20;99.90;;;;;;4952105;29;20209;-67
2022/02/14 17:06:49;;;;;;;5.60;5.20;;;9.20;99.90;;;;;;4945484;28;20197;-68
2022/02/14 17:09:16;;;;;;;7.20;6.00;;;9.10;99.90;;;;;;4935947;28;20240;-68
2022/02/14 17:11:46;;;;;;;7.95;5.35;;;9.10;99.90;;;;;;4946963;29;20229;-68
2022/02/14 17:14:13;;;;;;;5.38;4.97;;;9.00;99.90;;;;;;4945418;28;20225;-68
2022/02/14 17:16:40;;;;;;;5.93;5.28;;;9.00;99.90;;;;;;4935033;28;20675;-67
2022/02/14 17:19:07;;;;;;;6.47;5.65;;;8.90;99.90;;;;;;4943715;29;20209;-67
2022/02/14 17:21:34;;;;;;;5.80;5.30;;;8.90;99.90;;;;;;4937177;29;20536;-68
2022/02/14 17:24:02;;;;;;;6.43;5.78;;;8.90;99.90;;;;;;4950697;28;20209;-66
2022/02/14 17:26:31;;;;;;;5.95;5.35;;;8.80;99.90;;;;;;4935758;28;20309;-67
2022/02/14 17:28:59;;;;;;;9.23;5.82;;;8.80;99.90;;;;;;4931568;29;20245;-67
2022/02/14 17:31:29;;;;;;;5.85;5.35;;;8.80;99.90;;;;;;4939572;28;20233;-67
2022/02/14 17:33:56;;;;;;;6.65;5.80;;;8.80;99.90;;;;;;4941326;29;20663;-67
2022/02/14 17:36:24;;;;;;;6.05;5.55;;;8.80;99.90;;;;;;4930018;28;20645;-68
2022/02/14 17:38:52;;;;;;;6.38;5.88;;;8.80;99.90;;;;;;4939308;29;20698;-67
2022/02/14 17:41:18;;;;;;;5.28;4.93;;;8.70;99.90;;;;;;4936485;28;20224;-67
2022/02/14 17:43:45;;;;;;;7.20;6.50;;;8.70;99.90;;;;;;4947811;28;20268;-67
2022/02/14 17:46:13;;;;;;;6.13;5.53;;;8.70;99.90;;;;;;4944431;29;20194;-66
2022/02/14 17:48:41;;;;;;;6.32;5.82;;;8.60;99.90;;;;;;4949358;28;20209;-68
2022/02/14 17:51:07;;;;;;;6.53;5.93;;;8.60;99.90;;;;;;4931566;28;20296;-66
2022/02/14 17:53:34;;;;;;;5.93;5.38;;;8.60;99.90;;;;;;4931594;29;20350;-66
2022/02/14 17:56:01;;;;;;;7.88;6.03;;;8.60;99.90;;;;;;4943279;29;20264;-68
2022/02/14 17:58:28;;;;;;;7.90;7.10;;;8.50;99.90;;;;;;4945178;28;20210;-66
2022/02/14 18:00:55;;;;;;;18.88;8.93;;;8.50;99.90;;;;;;4951714;28;20690;-66
2022/02/14 18:03:23;;;;;;;14.63;7.57;;;8.40;99.90;;;;;;4952210;28;20633;-67
2022/02/14 18:05:51;;;;;;;12.90;7.82;;;8.40;99.90;;;;;;4946829;29;20590;-68